Time;durP1;ratioP1;P1;durP2;ratioP2;P2;SDS_P1;SDS_P2;PMS_P1;PMS_P2;Temp;Humidity;BMP_temperature;BMP_pressure;BME280_temperature;BME280_humidity;BME280_pressure;Samples;Min_cycle;Max_cycle;Signal;HPM_P1;HPM_P2
2022/09/03 00:02:06;;;;;;;1.45;0.50;;;16.30;1.00;;;;;;5034644;28;20046;-26
2022/09/03 00:04:42;;;;;;;5.00;0.47;;;16.20;1.00;;;;;;5034270;28;20459;-26
2022/09/03 00:07:19;;;;;;;3.08;0.70;;;16.20;1.00;;;;;;5031845;28;20073;-26
2022/09/03 00:09:54;;;;;;;2.60;0.70;;;16.10;1.00;;;;;;5032920;28;20046;-26
2022/09/03 00:12:24;;;;;;;2.17;0.70;;;16.10;1.00;;;;;;5034577;28;20041;-26
2022/09/03 00:15:06;;;;;;;3.22;0.90;;;16.00;1.00;;;;;;5034441;28;20156;-26
2022/09/03 00:17:50;;;;;;;6.18;0.68;;;16.00;1.00;;;;;;5033208;28;20076;-26
2022/09/03 00:20:21;;;;;;;3.40;0.55;;;16.00;1.00;;;;;;5034896;28;20053;-26
2022/09/03 00:22:54;;;;;;;3.65;0.68;;;16.00;1.00;;;;;;5034104;28;20045;-26
2022/09/03 00:25:43;;;;;;;2.58;0.50;;;16.00;1.00;;;;;;5032898;28;20419;-26
2022/09/03 00:28:15;;;;;;;8.65;0.85;;;16.00;1.00;;;;;;5033945;28;20046;-26
2022/09/03 00:30:44;;;;;;;1.50;0.47;;;15.90;1.00;;;;;;5033619;28;20436;-26
2022/09/03 00:33:20;;;;;;;1.58;0.50;;;15.90;1.00;;;;;;5024410;28;20045;-26
2022/09/03 00:36:02;;;;;;;3.63;0.40;;;15.90;1.00;;;;;;5026590;28;20055;-26
2022/09/03 00:38:30;;;;;;;2.00;0.38;;;15.90;1.00;;;;;;5031620;28;20503;-26
2022/09/03 00:41:02;;;;;;;3.85;0.35;;;15.90;1.00;;;;;;5033134;28;20120;-26
2022/09/03 00:44:06;;;;;;;2.53;0.50;;;15.90;1.00;;;;;;5033064;28;20049;-27
2022/09/03 00:46:42;;;;;;;1.80;0.75;;;15.90;1.00;;;;;;5023050;28;20091;-26
2022/09/03 00:49:29;;;;;;;4.45;0.50;;;15.90;1.00;;;;;;5032185;28;20041;-26
2022/09/03 00:52:05;;;;;;;3.22;0.63;;;15.80;1.00;;;;;;5033259;28;20045;-26
2022/09/03 00:54:45;;;;;;;2.63;0.30;;;15.80;1.00;;;;;;5034192;28;20089;-26
2022/09/03 00:57:26;;;;;;;4.72;0.50;;;15.80;1.00;;;;;;5033000;28;20049;-26
2022/09/03 01:00:11;;;;;;;2.10;0.40;;;15.80;1.00;;;;;;5032835;28;20055;-26
2022/09/03 01:03:00;;;;;;;4.80;0.50;;;15.70;1.00;;;;;;5032797;28;20053;-26
2022/09/03 01:05:49;;;;;;;4.55;0.50;;;15.70;1.00;;;;;;5033611;28;20072;-26
2022/09/03 01:08:43;;;;;;;4.72;0.80;;;15.70;1.00;;;;;;5032178;28;20128;-26
2022/09/03 01:11:32;;;;;;;2.75;0.70;;;15.70;1.00;;;;;;5029557;28;20048;-26
2022/09/03 01:14:39;;;;;;;5.40;1.42;;;15.60;1.00;;;;;;5033662;28;20049;-26
2022/09/03 01:17:14;;;;;;;7.47;1.15;;;15.60;26.80;;;;;;5013914;28;20500;-26
2022/09/03 01:19:58;;;;;;;2.20;0.70;;;15.60;26.50;;;;;;5021317;28;20056;-26
2022/09/03 01:22:40;;;;;;;2.75;1.10;;;15.60;13.00;;;;;;5034676;28;20064;-26
2022/09/03 01:25:30;;;;;;;2.30;0.88;;;15.60;22.30;;;;;;5018228;28;20057;-26
2022/09/03 01:28:14;;;;;;;3.97;1.17;;;15.50;54.30;;;;;;5017862;28;20054;-26
2022/09/03 01:30:46;;;;;;;2.85;0.60;;;15.50;67.40;;;;;;5028629;28;20050;-26
2022/09/03 01:33:36;;;;;;;2.90;0.52;;;15.40;69.00;;;;;;5035781;28;20527;-26
2022/09/03 01:36:33;;;;;;;5.45;0.90;;;15.40;77.50;;;;;;5036476;28;20053;-26
2022/09/03 01:39:03;;;;;;;1.48;0.38;;;15.40;99.90;;;;;;5026733;28;20085;-26
2022/09/03 01:44:31;;;;;;;1.25;0.45;;;15.30;99.90;;;;;;5036406;28;20103;-27
2022/09/03 01:47:15;;;;;;;3.67;0.40;;;15.20;99.90;;;;;;5037019;28;20061;-26
2022/09/03 01:49:58;;;;;;;3.50;0.68;;;15.20;99.90;;;;;;5037031;28;20406;-26
2022/09/03 01:53:05;;;;;;;1.70;0.40;;;15.10;99.90;;;;;;5032242;28;20408;-27
2022/09/03 01:55:54;;;;;;;6.13;0.63;;;15.00;99.90;;;;;;5036061;28;20045;-26
2022/09/03 01:58:28;;;;;;;0.82;0.40;;;15.00;99.90;;;;;;5025530;28;20053;-26
2022/09/03 02:01:02;;;;;;;1.45;0.50;;;14.90;99.90;;;;;;5037244;28;20075;-26
2022/09/03 02:03:39;;;;;;;2.67;0.55;;;14.90;99.90;;;;;;5036878;28;20156;-26
2022/09/03 02:06:07;;;;;;;4.65;0.60;;;14.90;99.90;;;;;;5035385;28;20411;-26
2022/09/03 02:08:33;;;;;;;2.63;0.63;;;14.80;99.90;;;;;;5034548;28;20539;-26
2022/09/03 02:11:01;;;;;;;2.65;0.40;;;14.70;99.90;;;;;;5036106;28;20232;-25
2022/09/03 02:13:44;;;;;;;3.78;0.50;;;14.60;99.90;;;;;;5035118;28;20161;-26
2022/09/03 02:16:20;;;;;;;3.08;0.93;;;14.40;99.90;;;;;;5037437;28;20052;-26
2022/09/03 02:18:49;;;;;;;6.20;1.40;;;14.20;1.00;;;;;;5036145;28;20068;-26
2022/09/03 02:21:18;;;;;;;6.60;0.80;;;14.10;1.00;;;;;;5036900;28;20110;-26
2022/09/03 02:23:44;;;;;;;1.83;0.60;;;13.90;1.00;;;;;;5035745;28;20392;-26
2022/09/03 02:26:13;;;;;;;1.60;0.50;;;13.80;47.40;;;;;;5035955;28;20048;-26
2022/09/03 02:28:39;;;;;;;1.33;0.50;;;13.80;99.90;;;;;;5035843;28;20407;-26
2022/09/03 02:31:05;;;;;;;1.60;0.60;;;13.50;99.90;;;;;;5036427;28;20056;-26
2022/09/03 02:33:38;;;;;;;1.20;0.50;;;13.50;99.90;;;;;;5049072;28;20048;-26
2022/09/03 02:36:07;;;;;;;4.75;0.75;;;13.40;99.90;;;;;;5033421;28;20522;-26
2022/09/03 02:38:33;;;;;;;3.45;0.75;;;13.30;99.90;;;;;;5033621;28;20053;-26
2022/09/03 02:40:59;;;;;;;2.90;0.70;;;13.30;99.90;;;;;;5034482;28;20073;-26
2022/09/03 02:43:40;;;;;;;4.07;0.65;;;13.30;99.90;;;;;;5035176;28;20079;-26
2022/09/03 02:46:11;;;;;;;1.75;0.50;;;13.20;99.90;;;;;;5035123;28;20045;-26
2022/09/03 02:48:37;;;;;;;5.25;0.88;;;13.10;99.90;;;;;;5036499;28;20076;-26
2022/09/03 02:51:03;;;;;;;4.10;0.70;;;13.10;1.00;;;;;;5034419;28;20139;-26
2022/09/03 02:53:29;;;;;;;3.47;0.82;;;13.10;1.00;;;;;;5036031;28;20041;-26
2022/09/03 02:55:59;;;;;;;3.40;0.93;;;13.00;1.00;;;;;;5035004;28;20045;-26
2022/09/03 02:58:25;;;;;;;3.90;0.73;;;13.00;1.00;;;;;;5019562;28;20077;-26
2022/09/03 03:00:51;;;;;;;1.23;0.40;;;13.00;1.00;;;;;;5035095;28;20041;-26
2022/09/03 03:03:17;;;;;;;3.25;0.82;;;12.90;1.00;;;;;;5034950;28;20045;-26
2022/09/03 03:05:55;;;;;;;2.28;0.70;;;12.90;1.00;;;;;;5034720;28;20132;-26
2022/09/03 03:08:24;;;;;;;2.67;0.70;;;12.80;1.00;;;;;;5036424;28;20047;-26
2022/09/03 03:10:58;;;;;;;1.15;0.60;;;12.80;1.00;;;;;;5035031;28;20045;-26
2022/09/03 03:13:25;;;;;;;2.78;0.55;;;12.80;1.00;;;;;;5035386;28;20420;-26
2022/09/03 03:15:50;;;;;;;2.63;0.82;;;12.80;1.00;;;;;;5032876;28;20538;-28
2022/09/03 03:18:16;;;;;;;3.28;0.60;;;12.90;1.00;;;;;;5034619;28;20079;-27
2022/09/03 03:20:43;;;;;;;3.25;0.80;;;12.90;1.00;;;;;;5034360;28;20128;-27
2022/09/03 03:23:10;;;;;;;3.17;0.73;;;12.90;1.00;;;;;;5050298;28;20475;-28
2022/09/03 03:25:37;;;;;;;3.88;0.75;;;13.00;1.00;;;;;;5034700;28;20132;-28
2022/09/03 03:28:04;;;;;;;1.00;0.50;;;13.10;1.00;;;;;;5032656;28;20081;-28
2022/09/03 03:30:30;;;;;;;2.08;0.77;;;13.20;1.00;;;;;;5034976;28;20044;-27
2022/09/03 03:32:56;;;;;;;1.52;0.68;;;13.20;1.00;;;;;;5034752;28;20045;-28
2022/09/03 03:35:22;;;;;;;3.78;0.82;;;13.30;1.00;;;;;;5033082;28;20499;-28
2022/09/03 03:37:48;;;;;;;2.10;0.50;;;13.30;1.00;;;;;;5034024;28;20053;-27
2022/09/03 03:40:14;;;;;;;2.97;1.20;;;13.40;1.00;;;;;;5033834;28;20047;-28
2022/09/03 03:42:40;;;;;;;0.85;0.40;;;13.40;1.00;;;;;;5035129;28;20053;-27
2022/09/03 03:45:08;;;;;;;2.95;0.70;;;13.40;1.00;;;;;;5033159;28;20067;-27
2022/09/03 03:47:35;;;;;;;2.95;0.70;;;13.50;1.00;;;;;;5033124;28;20479;-27
2022/09/03 03:50:00;;;;;;;1.60;0.68;;;13.50;1.00;;;;;;5034341;28;20042;-28
2022/09/03 03:52:26;;;;;;;2.00;0.65;;;13.50;1.00;;;;;;5035485;28;20126;-27
2022/09/03 03:54:52;;;;;;;2.25;1.10;;;13.50;1.00;;;;;;5034541;28;20120;-27
2022/09/03 03:57:20;;;;;;;2.05;0.52;;;13.50;1.00;;;;;;5034871;28;20136;-28
2022/09/03 03:59:46;;;;;;;2.40;0.75;;;13.50;1.00;;;;;;5032962;28;20049;-27
2022/09/03 04:02:13;;;;;;;2.53;0.90;;;13.50;1.00;;;;;;5033788;28;20045;-27
2022/09/03 04:04:39;;;;;;;3.72;1.00;;;13.50;1.00;;;;;;5033704;28;20506;-28
2022/09/03 04:07:04;;;;;;;5.60;1.00;;;13.50;1.00;;;;;;5034666;28;20045;-28
2022/09/03 04:09:30;;;;;;;1.63;0.70;;;13.50;1.00;;;;;;5033975;28;20124;-28
2022/09/03 04:11:56;;;;;;;1.80;0.70;;;13.50;1.00;;;;;;5033753;28;20049;-28
2022/09/03 04:14:23;;;;;;;1.60;0.60;;;13.50;1.00;;;;;;5033899;28;20407;-28
2022/09/03 04:16:49;;;;;;;3.13;0.90;;;13.50;1.00;;;;;;5033477;28;20037;-27
2022/09/03 04:19:16;;;;;;;2.83;0.90;;;13.50;1.00;;;;;;5033688;28;20045;-28
2022/09/03 04:21:42;;;;;;;2.28;0.93;;;13.50;1.00;;;;;;5032649;28;20045;-28
2022/09/03 04:24:08;;;;;;;5.25;0.80;;;13.60;1.00;;;;;;5048532;28;20128;-27
2022/09/03 04:26:35;;;;;;;2.83;0.73;;;13.60;1.00;;;;;;5033648;28;20504;-28
2022/09/03 04:29:08;;;;;;;2.95;0.75;;;13.70;1.00;;;;;;5034887;28;20140;-27
2022/09/03 04:31:35;;;;;;;2.03;0.57;;;13.70;1.00;;;;;;5033158;28;20073;-28
2022/09/03 04:34:01;;;;;;;5.13;0.60;;;13.80;1.00;;;;;;5030717;28;20052;-27
2022/09/03 04:36:29;;;;;;;3.63;0.75;;;13.80;1.00;;;;;;5031902;28;20064;-28
2022/09/03 04:38:58;;;;;;;4.07;0.90;;;13.90;1.00;;;;;;5032910;28;20381;-28
2022/09/03 04:41:26;;;;;;;1.98;0.60;;;13.90;1.00;;;;;;5048043;28;20085;-28
2022/09/03 04:43:57;;;;;;;4.28;0.80;;;13.90;1.00;;;;;;5032931;28;20056;-27
2022/09/03 04:46:25;;;;;;;3.28;0.95;;;13.90;1.00;;;;;;5033909;28;20054;-28
2022/09/03 04:48:53;;;;;;;2.78;0.60;;;13.80;1.00;;;;;;5047358;28;20391;-28
2022/09/03 04:51:26;;;;;;;1.67;0.75;;;13.80;1.00;;;;;;5033239;28;20047;-27
2022/09/03 04:53:57;;;;;;;2.42;0.90;;;13.90;1.00;;;;;;5033158;28;20576;-28
2022/09/03 04:56:29;;;;;;;1.83;0.88;;;13.80;1.00;;;;;;5032665;28;20107;-28
2022/09/03 04:58:57;;;;;;;1.38;0.90;;;13.80;1.00;;;;;;5033867;28;20123;-27
2022/09/03 05:01:26;;;;;;;3.05;0.90;;;13.70;1.00;;;;;;5032595;28;20045;-28
2022/09/03 05:03:52;;;;;;;1.27;0.52;;;13.70;1.00;;;;;;5033195;28;20045;-28
2022/09/03 05:06:18;;;;;;;8.05;1.80;;;13.70;1.00;;;;;;5030661;28;20049;-27
2022/09/03 05:08:47;;;;;;;2.97;0.93;;;13.70;1.00;;;;;;5032976;28;20041;-27
2022/09/03 05:11:13;;;;;;;2.67;0.80;;;13.70;1.00;;;;;;5033617;28;20403;-27
2022/09/03 05:13:39;;;;;;;4.15;0.80;;;13.60;1.00;;;;;;5033665;28;20056;-28
2022/09/03 05:16:07;;;;;;;2.60;0.63;;;13.60;1.00;;;;;;5032001;28;20045;-27
2022/09/03 05:18:34;;;;;;;2.80;1.10;;;13.60;1.00;;;;;;5030032;28;20061;-27
2022/09/03 05:21:02;;;;;;;4.03;1.17;;;13.60;1.00;;;;;;5033145;28;20049;-28
2022/09/03 05:23:29;;;;;;;4.20;1.23;;;13.70;1.00;;;;;;5032795;28;20050;-27
2022/09/03 05:25:59;;;;;;;2.75;1.30;;;13.70;1.00;;;;;;5031584;28;20073;-28
2022/09/03 05:28:27;;;;;;;8.27;1.30;;;13.80;1.00;;;;;;5030330;28;20095;-28
2022/09/03 05:31:06;;;;;;;2.88;0.90;;;13.80;1.00;;;;;;5033399;28;20052;-28
2022/09/03 05:33:36;;;;;;;2.83;1.02;;;13.90;1.00;;;;;;5037899;28;20479;-27
2022/09/03 05:36:11;;;;;;;3.00;0.80;;;14.00;1.00;;;;;;5042761;28;20397;-27
2022/09/03 05:38:37;;;;;;;2.97;0.90;;;14.10;1.00;;;;;;5033968;28;20065;-28
2022/09/03 05:41:08;;;;;;;1.90;0.70;;;14.20;1.00;;;;;;5033239;28;20056;-29
2022/09/03 05:43:35;;;;;;;3.13;0.88;;;14.30;1.00;;;;;;5033442;28;20053;-29
2022/09/03 05:46:06;;;;;;;1.33;0.88;;;14.40;1.00;;;;;;5033357;28;20060;-28
2022/09/03 05:48:34;;;;;;;4.40;1.05;;;14.40;1.00;;;;;;5030723;28;20136;-29
2022/09/03 05:51:09;;;;;;;1.52;0.75;;;14.50;1.00;;;;;;5033275;28;20041;-27
2022/09/03 05:53:37;;;;;;;4.97;0.90;;;14.60;1.00;;;;;;5030090;28;20111;-29
2022/09/03 05:56:16;;;;;;;2.42;0.93;;;14.60;1.00;;;;;;5034180;28;20371;-27
2022/09/03 05:58:44;;;;;;;3.10;1.20;;;14.60;1.00;;;;;;5035669;28;20071;-28
2022/09/03 06:01:19;;;;;;;4.20;1.00;;;14.60;1.00;;;;;;5031080;28;20117;-28
2022/09/03 06:03:47;;;;;;;3.05;1.48;;;14.70;1.00;;;;;;5033263;28;20072;-28
2022/09/03 06:06:14;;;;;;;4.30;1.40;;;14.70;1.00;;;;;;5032672;28;20046;-27
2022/09/03 06:08:41;;;;;;;7.88;3.97;;;14.80;1.00;;;;;;5035662;28;20045;-30
2022/09/03 06:11:07;;;;;;;4.35;2.22;;;14.80;99.90;;;;;;5036457;28;20048;-28
2022/09/03 06:13:34;;;;;;;4.03;1.40;;;14.90;99.90;;;;;;5035192;28;20041;-27
2022/09/03 06:16:02;;;;;;;3.28;1.25;;;14.90;99.90;;;;;;5035844;28;20057;-28
2022/09/03 06:18:29;;;;;;;2.33;0.90;;;14.90;99.90;;;;;;5035788;28;20110;-27
2022/09/03 06:21:00;;;;;;;1.27;0.70;;;15.00;99.90;;;;;;5036555;28;20041;-27
2022/09/03 06:23:27;;;;;;;3.13;0.90;;;14.90;99.90;;;;;;5036605;28;20050;-28
2022/09/03 06:26:03;;;;;;;12.18;3.65;;;14.90;99.90;;;;;;5036590;28;20053;-28
2022/09/03 06:28:31;;;;;;;2.15;1.00;;;14.90;99.90;;;;;;5035701;28;20048;-27
2022/09/03 06:30:57;;;;;;;1.70;0.85;;;15.00;99.90;;;;;;5036517;28;20124;-27
2022/09/03 06:33:24;;;;;;;4.18;0.80;;;15.00;99.90;;;;;;5036414;28;20042;-28
2022/09/03 06:35:57;;;;;;;3.80;0.82;;;15.00;99.90;;;;;;5035133;28;20089;-27
2022/09/03 06:38:27;;;;;;;2.42;1.15;;;15.00;99.90;;;;;;5036304;28;20133;-28
2022/09/03 06:40:55;;;;;;;3.22;1.05;;;15.10;99.90;;;;;;5035031;28;20072;-28
2022/09/03 06:43:22;;;;;;;3.90;0.73;;;15.20;99.90;;;;;;5036093;28;20527;-27
2022/09/03 06:45:59;;;;;;;4.15;1.10;;;15.20;99.90;;;;;;5035624;28;20168;-28
2022/09/03 06:48:26;;;;;;;2.50;1.00;;;15.30;99.90;;;;;;5036189;28;20172;-27
2022/09/03 06:51:00;;;;;;;2.90;1.27;;;15.30;99.90;;;;;;5036133;28;20053;-27
2022/09/03 06:53:28;;;;;;;1.48;0.63;;;15.40;99.90;;;;;;5035519;28;20077;-28
2022/09/03 06:55:59;;;;;;;5.13;1.10;;;15.50;99.90;;;;;;5036081;28;20080;-27
2022/09/03 06:58:29;;;;;;;4.70;0.90;;;15.50;99.90;;;;;;5035066;28;20056;-28
2022/09/03 07:01:01;;;;;;;2.33;0.98;;;15.60;99.90;;;;;;5036765;28;20361;-28
2022/09/03 07:03:26;;;;;;;2.20;0.80;;;15.70;99.90;;;;;;5035806;28;20049;-28
2022/09/03 07:05:52;;;;;;;2.35;0.85;;;15.80;99.90;;;;;;5035539;28;20078;-27
2022/09/03 07:08:18;;;;;;;2.78;0.77;;;15.80;99.90;;;;;;5035815;28;20057;-28
2022/09/03 07:10:46;;;;;;;1.70;0.80;;;15.90;99.90;;;;;;5035978;28;20045;-27
2022/09/03 07:13:13;;;;;;;3.08;1.00;;;16.00;99.90;;;;;;5035981;28;20130;-27
2022/09/03 07:15:40;;;;;;;2.70;0.77;;;16.00;99.90;;;;;;5035740;28;20042;-28
2022/09/03 07:18:06;;;;;;;4.82;1.02;;;16.10;99.90;;;;;;5034135;28;20041;-28
2022/09/03 07:20:32;;;;;;;3.83;1.00;;;16.20;99.90;;;;;;5034768;28;20052;-28
2022/09/03 07:22:57;;;;;;;3.83;0.88;;;16.30;99.90;;;;;;5035563;28;20053;-28
2022/09/03 07:25:25;;;;;;;1.98;0.68;;;16.40;99.90;;;;;;5035523;28;20115;-28
2022/09/03 07:27:51;;;;;;;1.17;0.57;;;16.50;68.00;;;;;;5035171;28;20511;-28
2022/09/03 07:30:18;;;;;;;4.00;0.90;;;16.50;46.70;;;;;;5035426;28;20115;-28
2022/09/03 07:32:45;;;;;;;1.23;0.63;;;16.70;1.00;;;;;;5035897;28;20088;-28
2022/09/03 07:35:12;;;;;;;1.63;0.70;;;16.70;21.80;;;;;;5035334;28;20136;-28
2022/09/03 07:37:41;;;;;;;3.92;0.90;;;16.80;7.80;;;;;;5034321;28;20058;-28
2022/09/03 07:40:09;;;;;;;2.47;0.80;;;17.00;1.00;;;;;;5035147;28;20051;-28
2022/09/03 07:42:37;;;;;;;6.40;0.82;;;17.10;1.00;;;;;;5017677;28;20045;-28
2022/09/03 07:45:08;;;;;;;2.30;0.70;;;17.10;1.00;;;;;;5035122;28;20073;-28
2022/09/03 07:47:35;;;;;;;4.15;0.75;;;17.20;1.00;;;;;;5035146;28;20103;-27
2022/09/03 07:50:01;;;;;;;1.60;0.80;;;17.30;1.00;;;;;;5035594;28;20360;-28
2022/09/03 07:52:27;;;;;;;4.70;0.80;;;17.40;99.90;;;;;;5034979;28;20099;-28
2022/09/03 07:54:52;;;;;;;3.17;0.77;;;17.50;1.00;;;;;;5035767;28;20387;-29
2022/09/03 07:57:18;;;;;;;3.17;0.80;;;17.60;99.90;;;;;;5034897;28;20128;-28
2022/09/03 07:59:43;;;;;;;2.15;0.70;;;17.60;99.90;;;;;;5033607;28;20081;-29
2022/09/03 08:02:09;;;;;;;2.60;0.90;;;17.70;99.90;;;;;;5033635;28;20072;-28
2022/09/03 08:04:35;;;;;;;2.25;0.60;;;17.80;99.90;;;;;;5034812;28;20123;-28
2022/09/03 08:07:03;;;;;;;2.60;0.75;;;17.90;99.90;;;;;;5035481;28;20045;-28
2022/09/03 08:09:28;;;;;;;3.03;0.85;;;18.00;99.90;;;;;;5034655;28;20045;-27
2022/09/03 08:11:54;;;;;;;3.10;1.05;;;18.10;99.90;;;;;;5033895;28;20051;-29
2022/09/03 08:14:20;;;;;;;2.13;0.70;;;18.20;91.80;;;;;;5034542;28;20045;-28
2022/09/03 08:16:46;;;;;;;2.15;0.77;;;18.30;77.00;;;;;;5034400;28;20111;-28
2022/09/03 08:19:13;;;;;;;1.33;0.52;;;18.40;60.40;;;;;;5035138;28;20128;-28
2022/09/03 08:21:42;;;;;;;5.75;1.00;;;18.50;40.30;;;;;;5034397;28;20042;-28
2022/09/03 08:24:10;;;;;;;1.38;0.90;;;18.60;1.00;;;;;;5016929;28;20099;-28
2022/09/03 08:26:38;;;;;;;4.32;0.88;;;18.70;1.00;;;;;;5034294;28;20456;-27
2022/09/03 08:29:04;;;;;;;5.75;0.90;;;18.70;1.00;;;;;;5034279;28;20574;-28
2022/09/03 08:31:31;;;;;;;1.67;0.60;;;18.80;1.00;;;;;;5034009;28;20045;-28
2022/09/03 08:33:58;;;;;;;4.18;1.00;;;18.90;1.00;;;;;;5033044;28;20049;-27
2022/09/03 08:36:26;;;;;;;2.90;0.70;;;18.90;99.90;;;;;;5034744;28;20068;-28
2022/09/03 08:38:54;;;;;;;4.15;0.90;;;19.00;99.90;;;;;;5034368;28;20052;-28
2022/09/03 08:41:44;;;;;;;3.97;0.90;;;19.00;99.90;;;;;;5033982;28;20144;-28
2022/09/03 08:45:02;;;;;;;1.75;0.80;;;19.20;99.90;;;;;;5034021;28;20132;-28
2022/09/03 08:47:40;;;;;;;3.08;0.68;;;19.30;99.90;;;;;;5021933;28;20203;-28
2022/09/03 08:50:25;;;;;;;4.72;0.60;;;19.40;99.90;;;;;;5034028;28;20079;-29
2022/09/03 08:53:23;;;;;;;3.25;0.70;;;19.60;99.90;;;;;;5033987;28;20129;-28
2022/09/03 08:55:58;;;;;;;2.53;0.90;;;19.70;99.90;;;;;;5032209;28;20518;-28
2022/09/03 08:58:31;;;;;;;5.25;0.90;;;19.80;99.90;;;;;;5033889;28;20046;-28
2022/09/03 09:01:14;;;;;;;2.67;0.90;;;19.90;99.90;;;;;;5033764;28;20527;-28
2022/09/03 09:03:51;;;;;;;4.07;0.85;;;20.00;99.90;;;;;;5033242;28;20379;-28
2022/09/03 09:06:45;;;;;;;3.78;0.85;;;20.20;99.90;;;;;;5034094;28;20052;-28
2022/09/03 09:09:48;;;;;;;1.42;0.63;;;20.60;99.90;;;;;;5033751;28;20396;-28
2022/09/03 09:12:52;;;;;;;5.35;1.17;;;21.90;1.00;;;;;;5032173;28;20128;-28
2022/09/03 09:15:39;;;;;;;;;;;23.10;1.00;;;;;;5034057;28;20053;-28
2022/09/03 09:18:26;;;;;;;2.80;0.93;;;23.60;1.00;;;;;;5034326;28;19921;-28
2022/09/03 09:21:15;;;;;;;1.27;0.63;;;24.10;1.00;;;;;;5034136;28;20044;-28
2022/09/03 09:23:47;;;;;;;1.50;0.73;;;24.60;1.00;;;;;;5033601;28;20043;-28
2022/09/03 09:26:16;;;;;;;7.50;0.70;;;24.90;42.80;;;;;;5032033;28;20052;-28
2022/09/03 09:28:45;;;;;;;2.92;0.65;;;25.30;99.90;;;;;;5033511;28;20524;-29
2022/09/03 09:31:14;;;;;;;0.88;0.40;;;25.70;99.90;;;;;;5033499;28;20103;-29
2022/09/03 09:33:40;;;;;;;0.63;0.50;;;25.90;99.90;;;;;;5033480;28;20081;-29
2022/09/03 09:36:14;;;;;;;2.38;0.70;;;26.00;99.90;;;;;;5033565;28;20533;-28
2022/09/03 09:38:40;;;;;;;3.20;0.45;;;26.00;99.90;;;;;;5034068;28;20099;-28
2022/09/03 09:41:18;;;;;;;3.15;0.93;;;26.10;99.90;;;;;;5033314;28;20537;-28
2022/09/03 09:43:46;;;;;;;3.60;0.70;;;26.40;99.90;;;;;;5037068;28;20137;-29
2022/09/03 09:46:15;;;;;;;5.22;0.90;;;26.40;99.90;;;;;;5036400;28;20492;-28
2022/09/03 09:48:55;;;;;;;3.15;0.73;;;26.50;99.90;;;;;;5037887;28;20045;-29
2022/09/03 09:51:24;;;;;;;3.70;0.70;;;26.60;99.90;;;;;;5037622;28;20053;-28
2022/09/03 09:54:26;;;;;;;3.78;0.60;;;26.80;99.90;;;;;;5037215;28;20049;-28
2022/09/03 09:57:06;;;;;;;5.88;0.75;;;26.90;99.90;;;;;;5026458;28;20430;-28
2022/09/03 09:59:33;;;;;;;5.15;0.70;;;27.30;99.90;;;;;;5037074;28;20087;-30
2022/09/03 10:02:14;;;;;;;4.82;0.85;;;27.50;99.90;;;;;;5037074;28;20049;-28
2022/09/03 10:04:42;;;;;;;2.13;0.70;;;27.60;99.90;;;;;;5037085;28;20042;-28
2022/09/03 10:07:28;;;;;;;3.65;0.82;;;27.50;99.90;;;;;;5036980;28;20129;-29
2022/09/03 10:10:28;;;;;;;2.22;0.52;;;27.70;99.90;;;;;;5037276;28;20435;-28
2022/09/03 10:13:18;;;;;;;4.85;0.80;;;27.70;99.90;;;;;;5025327;28;20446;-28
2022/09/03 10:16:07;;;;;;;6.03;0.73;;;27.70;99.90;;;;;;5037482;28;20501;-28
2022/09/03 10:18:39;;;;;;;3.25;0.50;;;28.00;99.90;;;;;;5037643;28;20041;-29
2022/09/03 10:21:22;;;;;;;5.60;0.68;;;27.90;99.90;;;;;;5036993;28;20134;-28
2022/09/03 10:23:58;;;;;;;3.47;0.60;;;28.30;99.90;;;;;;5037327;28;20099;-29
2022/09/03 10:26:28;;;;;;;2.58;0.57;;;28.30;99.90;;;;;;5036977;28;20042;-29
2022/09/03 10:28:57;;;;;;;4.20;0.70;;;28.20;99.90;;;;;;5035636;28;20539;-29
2022/09/03 10:31:44;;;;;;;1.88;0.70;;;28.30;1.00;;;;;;5036814;28;20392;-29
2022/09/03 10:34:55;;;;;;;6.55;1.50;;;28.40;1.00;;;;;;5036520;28;20050;-29
2022/09/03 10:37:39;;;;;;;5.22;0.63;;;28.60;1.00;;;;;;5019672;28;20058;-28
2022/09/03 10:40:06;;;;;;;2.45;0.80;;;28.80;1.00;;;;;;5036347;28;20107;-28
2022/09/03 10:42:58;;;;;;;2.95;0.70;;;28.90;1.00;;;;;;5036841;28;20077;-28
2022/09/03 10:45:58;;;;;;;2.22;0.40;;;29.00;27.90;;;;;;5036566;28;20395;-28
2022/09/03 10:48:39;;;;;;;6.28;0.70;;;28.90;60.90;;;;;;5036357;28;20046;-28
2022/09/03 10:51:15;;;;;;;1.42;0.52;;;28.80;76.20;;;;;;5036202;28;20052;-29
2022/09/03 10:53:49;;;;;;;4.55;1.50;;;29.00;80.20;;;;;;5036316;28;20045;-29
2022/09/03 10:56:29;;;;;;;3.03;0.57;;;29.20;96.50;;;;;;5036123;28;20539;-28
2022/09/03 10:59:21;;;;;;;3.35;0.60;;;29.20;99.90;;;;;;5036153;28;20057;-29
2022/09/03 11:02:10;;;;;;;4.55;0.85;;;29.20;99.90;;;;;;5034905;28;20072;-28
2022/09/03 11:05:06;;;;;;;3.70;0.90;;;29.30;99.90;;;;;;5035035;28;20045;-29
2022/09/03 11:07:40;;;;;;;5.15;0.57;;;29.20;99.90;;;;;;5035670;28;20061;-30
2022/09/03 11:10:17;;;;;;;2.72;0.65;;;29.40;99.90;;;;;;5035959;28;20057;-28
2022/09/03 11:13:16;;;;;;;3.47;0.77;;;29.60;99.90;;;;;;5035704;28;20140;-29
2022/09/03 11:15:53;;;;;;;5.55;0.80;;;29.90;99.90;;;;;;5017530;28;20050;-28
2022/09/03 11:18:27;;;;;;;4.57;0.70;;;30.20;99.90;;;;;;5035821;28;20077;-33
2022/09/03 11:21:00;;;;;;;3.47;0.40;;;30.10;99.90;;;;;;5034591;28;20041;-29
2022/09/03 11:23:28;;;;;;;1.58;0.60;;;30.10;99.90;;;;;;5036040;28;20120;-28
2022/09/03 11:25:57;;;;;;;4.22;0.68;;;30.10;99.90;;;;;;5036196;28;20053;-28
2022/09/03 11:28:52;;;;;;;5.55;0.68;;;30.00;99.90;;;;;;5035380;28;20196;-28
2022/09/03 11:31:24;;;;;;;7.22;1.35;;;29.80;99.90;;;;;;5018694;28;20102;-28
2022/09/03 11:34:06;;;;;;;2.30;0.32;;;29.90;99.90;;;;;;5035584;28;20395;-29
2022/09/03 11:36:35;;;;;;;4.40;0.80;;;29.80;99.90;;;;;;5033863;28;20092;-29
2022/09/03 11:39:11;;;;;;;3.38;0.70;;;29.60;99.90;;;;;;5035731;28;20049;-29
2022/09/03 11:41:38;;;;;;;5.60;0.93;;;29.70;99.90;;;;;;5034619;28;20457;-29
2022/09/03 11:44:36;;;;;;;7.43;0.90;;;29.80;99.90;;;;;;5035560;28;20050;-29
2022/09/03 11:47:19;;;;;;;7.78;0.75;;;30.30;99.90;;;;;;5027378;28;20079;-28
2022/09/03 11:49:51;;;;;;;6.28;0.70;;;30.40;99.90;;;;;;5035799;28;20033;-29
2022/09/03 11:52:28;;;;;;;9.70;0.93;;;30.30;99.90;;;;;;5035450;28;20057;-29
2022/09/03 11:54:54;;;;;;;3.03;0.70;;;30.70;99.90;;;;;;5035117;28;20053;-28
2022/09/03 11:57:27;;;;;;;4.00;0.60;;;30.70;99.90;;;;;;5034762;28;20510;-29
2022/09/03 11:59:54;;;;;;;7.95;0.90;;;30.30;99.90;;;;;;5034979;28;20128;-29
2022/09/03 12:02:32;;;;;;;4.60;0.60;;;30.20;99.90;;;;;;5034407;28;20539;-29
2022/09/03 12:05:10;;;;;;;5.97;0.50;;;30.30;99.90;;;;;;5034061;28;20118;-29
2022/09/03 12:07:41;;;;;;;10.43;0.77;;;30.00;99.90;;;;;;5035153;28;20052;-29
2022/09/03 12:10:25;;;;;;;4.60;0.50;;;29.80;99.90;;;;;;5034583;28;20046;-29
2022/09/03 12:13:14;;;;;;;4.85;0.63;;;29.70;99.90;;;;;;5034842;28;20046;-29
2022/09/03 12:16:23;;;;;;;1.98;0.77;;;29.80;99.90;;;;;;5034473;28;20053;-29
2022/09/03 12:18:51;;;;;;;4.55;0.80;;;30.00;99.90;;;;;;5028603;28;20064;-29
2022/09/03 12:21:18;;;;;;;3.35;0.50;;;30.00;99.90;;;;;;5034785;28;20046;-30
2022/09/03 12:23:53;;;;;;;2.45;1.00;;;30.10;99.90;;;;;;5034562;28;20398;-29
2022/09/03 12:26:22;;;;;;;5.97;0.93;;;30.00;99.90;;;;;;5035070;28;20115;-29
2022/09/03 12:28:54;;;;;;;3.65;0.80;;;30.00;99.90;;;;;;5034980;28;20056;-29
2022/09/03 12:31:28;;;;;;;2.58;0.68;;;30.20;99.90;;;;;;5034703;28;20041;-27
2022/09/03 12:34:00;;;;;;;4.57;0.68;;;30.30;99.90;;;;;;5034149;28;20060;-27
2022/09/03 12:36:37;;;;;;;5.75;1.08;;;30.30;99.90;;;;;;5032689;28;20499;-27
2022/09/03 12:39:18;;;;;;;3.38;0.43;;;30.40;99.90;;;;;;5033874;28;20053;-28
2022/09/03 12:42:00;;;;;;;3.97;0.60;;;30.20;99.90;;;;;;5034471;28;20045;-28
2022/09/03 12:44:41;;;;;;;2.30;0.57;;;30.20;99.90;;;;;;5033942;28;20060;-27
2022/09/03 12:47:18;;;;;;;2.90;0.45;;;30.10;99.90;;;;;;5033247;28;20503;-28
2022/09/03 12:49:46;;;;;;;3.45;0.60;;;30.20;99.90;;;;;;5032697;28;20186;-27
2022/09/03 12:52:30;;;;;;;2.05;0.50;;;30.30;99.90;;;;;;5033805;28;20046;-28
2022/09/03 12:55:07;;;;;;;6.25;0.63;;;30.50;99.90;;;;;;5032621;28;20055;-28
2022/09/03 12:57:38;;;;;;;4.65;0.70;;;30.50;99.90;;;;;;5034606;28;20049;-28
2022/09/03 13:00:07;;;;;;;5.70;0.73;;;30.30;99.90;;;;;;5033749;28;20085;-28
2022/09/03 13:02:52;;;;;;;4.63;0.70;;;30.20;99.90;;;;;;5032465;28;20554;-27
2022/09/03 13:05:21;;;;;;;6.03;0.77;;;30.30;99.90;;;;;;5033680;28;20131;-28
2022/09/03 13:07:52;;;;;;;7.10;0.93;;;30.20;99.90;;;;;;5034114;28;20045;-28
2022/09/03 13:10:24;;;;;;;4.70;0.60;;;30.20;99.90;;;;;;5034159;28;20041;-29
2022/09/03 13:12:50;;;;;;;1.10;0.50;;;30.30;99.90;;;;;;5033513;28;20050;-27
2022/09/03 13:15:24;;;;;;;2.05;0.40;;;30.20;99.90;;;;;;5033202;28;20099;-29
2022/09/03 13:18:18;;;;;;;2.28;0.60;;;30.50;99.90;;;;;;5032612;28;20124;-28
2022/09/03 13:21:10;;;;;;;3.45;0.50;;;30.70;99.90;;;;;;5033981;28;20369;-28
2022/09/03 13:24:12;;;;;;;2.58;0.55;;;30.80;99.90;;;;;;5033506;28;20053;-27
2022/09/03 13:26:55;;;;;;;1.60;0.55;;;31.20;99.90;;;;;;5032977;28;20050;-28
2022/09/03 13:29:46;;;;;;;2.38;0.82;;;31.10;99.90;;;;;;5033438;28;20132;-28